createdAt,value
2022-07-31T00:01:39.042Z,73.70
2022-07-31T00:04:29.879Z,73.40
2022-07-31T00:07:21.026Z,73.40
2022-07-31T00:10:12.548Z,73.60
2022-07-31T00:13:04.235Z,75.00
2022-07-31T00:15:55.338Z,75.30
2022-07-31T00:18:46.544Z,76.10
2022-07-31T00:21:37.486Z,77.30
2022-07-31T00:24:30.205Z,80.50
2022-07-31T00:27:21.160Z,80.50
2022-07-31T00:30:14.002Z,81.10
2022-07-31T00:33:05.480Z,82.20
2022-07-31T00:35:56.710Z,82.90
2022-07-31T00:38:48.141Z,83.30
2022-07-31T00:41:42.382Z,84.10
2022-07-31T00:44:33.471Z,84.00
2022-07-31T00:47:25.670Z,83.80
2022-07-31T00:50:17.009Z,86.40
2022-07-31T00:53:08.070Z,86.70
2022-07-31T00:55:59.287Z,86.60
2022-07-31T00:58:50.169Z,86.50
2022-07-31T01:01:41.163Z,86.40
2022-07-31T01:07:15.326Z,86.90
2022-07-31T01:10:10.759Z,87.80
2022-07-31T01:13:04.956Z,88.20
2022-07-31T01:15:59.308Z,90.00
2022-07-31T01:18:52.514Z,90.20
2022-07-31T01:21:46.832Z,90.20
2022-07-31T01:24:48.640Z,90.70
2022-07-31T01:27:53.044Z,90.90
2022-07-31T01:30:50.403Z,91.10
2022-07-31T01:36:23.471Z,91.50
2022-07-31T01:39:15.148Z,91.60
2022-07-31T01:44:49.395Z,91.70
2022-07-31T01:47:42.807Z,91.90
2022-07-31T01:50:42.256Z,92.10
2022-07-31T01:53:31.251Z,92.40
2022-07-31T01:56:24.841Z,92.60
2022-07-31T01:59:22.693Z,92.80
2022-07-31T02:02:14.750Z,93.50
2022-07-31T02:05:10.081Z,93.60
2022-07-31T02:08:02.884Z,94.30
2022-07-31T02:10:55.311Z,94.40
2022-07-31T02:13:47.783Z,94.70
2022-07-31T02:19:26.092Z,95.50
2022-07-31T02:22:17.436Z,97.30
2022-07-31T02:25:10.258Z,97.70
2022-07-31T02:28:05.428Z,97.70
2022-07-31T02:30:57.425Z,97.80
2022-07-31T02:33:49.913Z,98.00
2022-07-31T02:39:21.961Z,98.40
2022-07-31T02:44:53.928Z,98.70
2022-07-31T02:47:45.611Z,99.90
2022-07-31T02:50:37.318Z,99.90
2022-07-31T02:53:28.296Z,99.90
2022-07-31T02:56:20.972Z,99.90
2022-07-31T02:59:11.885Z,99.90
2022-07-31T03:02:05.509Z,99.90
2022-07-31T03:04:58.328Z,99.90
2022-07-31T03:10:28.983Z,99.90
2022-07-31T03:16:11.618Z,99.90
2022-07-31T03:19:04.351Z,99.90
2022-07-31T03:24:35.326Z,99.90
2022-07-31T03:27:29.611Z,99.90
2022-07-31T03:30:22.596Z,99.90
2022-07-31T03:33:13.889Z,99.90
2022-07-31T03:36:05.379Z,99.90
2022-07-31T03:38:56.910Z,99.90
2022-07-31T03:41:54.425Z,99.90
2022-07-31T03:44:46.860Z,99.90
2022-07-31T03:47:38.365Z,99.90
2022-07-31T03:50:30.511Z,99.90
2022-07-31T03:53:22.012Z,99.90
2022-07-31T03:56:14.305Z,99.90
2022-07-31T03:59:06.218Z,99.90
2022-07-31T04:04:37.899Z,99.90
2022-07-31T04:07:29.684Z,99.90
2022-07-31T04:10:21.704Z,99.90
2022-07-31T04:13:12.974Z,99.90
2022-07-31T04:16:04.965Z,99.90
2022-07-31T04:18:56.257Z,99.90
2022-07-31T04:21:49.910Z,99.90
2022-07-31T04:24:41.684Z,99.90
2022-07-31T04:27:52.985Z,99.90
2022-07-31T04:30:44.330Z,99.90
2022-07-31T04:33:35.775Z,99.90
2022-07-31T04:36:29.891Z,99.90
2022-07-31T04:39:22.750Z,99.90
2022-07-31T04:42:14.327Z,99.90
2022-07-31T04:45:07.214Z,99.90
2022-07-31T04:47:58.251Z,99.90
2022-07-31T04:50:49.371Z,99.90
2022-07-31T04:56:37.820Z,99.90
2022-07-31T04:59:59.460Z,99.90
2022-07-31T05:04:59.741Z,99.90
2022-07-31T05:10:55.283Z,99.90
2022-07-31T05:13:47.279Z,99.90
2022-07-31T05:19:17.974Z,99.90
2022-07-31T05:22:27.155Z,99.90
2022-07-31T05:25:37.951Z,99.90
2022-07-31T05:28:31.054Z,99.90
2022-07-31T05:31:23.619Z,99.90
2022-07-31T05:34:14.933Z,99.90
2022-07-31T05:39:45.470Z,99.90
2022-07-31T05:42:55.299Z,99.90
2022-07-31T05:45:56.846Z,99.90
2022-07-31T05:48:48.337Z,99.90
2022-07-31T05:51:42.332Z,99.90
2022-07-31T05:54:33.879Z,99.90
2022-07-31T06:00:04.859Z,99.90
2022-07-31T06:02:59.244Z,99.90
2022-07-31T06:06:08.521Z,99.90
2022-07-31T06:11:37.976Z,99.90
2022-07-31T06:14:28.981Z,99.90
2022-07-31T06:17:44.266Z,99.90
2022-07-31T06:20:32.623Z,99.90
2022-07-31T06:23:32.222Z,99.90
2022-07-31T06:26:22.309Z,99.90
2022-07-31T06:29:14.867Z,99.90
2022-07-31T06:34:52.487Z,99.90
2022-07-31T06:40:31.015Z,99.90
2022-07-31T06:43:36.370Z,99.90
2022-07-31T06:46:49.610Z,99.90
2022-07-31T06:49:57.574Z,99.90
2022-07-31T06:52:52.887Z,99.90
2022-07-31T06:55:46.183Z,99.90
2022-07-31T06:58:40.768Z,99.90
2022-07-31T07:04:12.825Z,99.90
2022-07-31T07:07:04.526Z,99.90
2022-07-31T07:09:55.814Z,99.90
2022-07-31T07:12:58.199Z,99.90
2022-07-31T07:16:21.516Z,99.90
2022-07-31T07:19:14.467Z,99.90
2022-07-31T07:22:07.883Z,99.90
2022-07-31T07:25:01.703Z,99.90
2022-07-31T07:27:53.957Z,99.90
2022-07-31T07:30:45.921Z,99.90
2022-07-31T07:33:41.136Z,99.90
2022-07-31T07:36:30.645Z,99.90
2022-07-31T07:39:23.829Z,99.90
2022-07-31T07:42:15.186Z,99.90
2022-07-31T07:45:12.146Z,99.90
2022-07-31T07:48:07.546Z,99.90
2022-07-31T07:51:06.630Z,99.90
2022-07-31T07:54:15.320Z,99.90
2022-07-31T07:57:25.300Z,99.90
2022-07-31T08:00:50.499Z,99.90
2022-07-31T08:06:25.884Z,99.90
2022-07-31T08:09:17.035Z,99.90
2022-07-31T08:12:11.182Z,99.90
2022-07-31T08:15:04.228Z,99.90
2022-07-31T08:18:13.785Z,99.90
2022-07-31T08:21:04.909Z,99.90
2022-07-31T08:23:56.501Z,99.90
2022-07-31T08:27:10.482Z,99.90
2022-07-31T08:30:00.258Z,99.90
2022-07-31T08:35:31.266Z,99.90
2022-07-31T08:38:22.396Z,99.90
2022-07-31T08:41:34.243Z,99.90
2022-07-31T08:44:30.901Z,99.90
2022-07-31T08:49:59.231Z,99.50
2022-07-31T08:52:54.770Z,99.10
2022-07-31T08:55:56.012Z,98.60
2022-07-31T08:58:42.308Z,98.10
2022-07-31T09:01:35.966Z,97.40
2022-07-31T09:04:38.221Z,97.30
2022-07-31T09:07:29.300Z,97.00
2022-07-31T09:10:26.131Z,96.50
2022-07-31T09:13:19.023Z,96.50
2022-07-31T09:16:11.383Z,96.30
2022-07-31T09:19:51.334Z,96.30
2022-07-31T09:27:38.915Z,95.30
2022-07-31T09:30:30.530Z,94.90
2022-07-31T09:36:06.903Z,94.80
2022-07-31T09:38:59.624Z,95.20
2022-07-31T09:42:10.493Z,94.80
2022-07-31T09:44:52.534Z,94.40
2022-07-31T09:47:44.225Z,94.60
2022-07-31T09:50:35.496Z,94.60
2022-07-31T09:53:33.909Z,94.60
2022-07-31T09:56:33.828Z,94.10
2022-07-31T09:59:26.777Z,94.20
2022-07-31T10:05:01.943Z,93.90
2022-07-31T10:07:54.723Z,93.50
2022-07-31T10:10:50.310Z,93.30
2022-07-31T10:13:50.893Z,93.30
2022-07-31T10:19:21.264Z,92.20
2022-07-31T10:25:01.495Z,92.10
2022-07-31T10:30:34.815Z,90.90
2022-07-31T10:33:44.525Z,90.60
2022-07-31T10:36:27.268Z,90.50
2022-07-31T10:39:31.066Z,88.50
2022-07-31T10:42:39.098Z,87.30
2022-07-31T10:45:31.741Z,87.00
2022-07-31T10:48:43.978Z,86.50
2022-07-31T10:51:38.237Z,85.60
2022-07-31T10:54:39.780Z,84.70
2022-07-31T11:00:17.457Z,83.60
2022-07-31T11:03:17.367Z,83.20
2022-07-31T11:06:27.056Z,81.90
2022-07-31T11:09:25.149Z,83.00
2022-07-31T11:12:21.691Z,82.80
2022-07-31T11:15:30.962Z,82.30
2022-07-31T11:18:40.264Z,80.30
2022-07-31T11:21:39.496Z,80.90
2022-07-31T11:24:30.117Z,81.10
2022-07-31T11:27:31.824Z,81.10
2022-07-31T11:30:23.036Z,80.20
2022-07-31T11:35:58.421Z,80.10
2022-07-31T11:38:51.107Z,80.80
2022-07-31T11:44:23.719Z,77.90
2022-07-31T11:47:27.801Z,76.60
2022-07-31T11:50:10.657Z,77.00
2022-07-31T11:55:51.114Z,75.60
2022-07-31T11:58:44.956Z,75.80
2022-07-31T12:01:36.782Z,74.90
2022-07-31T12:04:29.317Z,75.60
2022-07-31T12:07:20.641Z,74.60
2022-07-31T12:10:14.678Z,74.30
2022-07-31T12:13:06.553Z,74.50
2022-07-31T12:16:03.210Z,74.20
2022-07-31T12:18:57.027Z,73.50
2022-07-31T12:21:48.455Z,73.40
2022-07-31T12:24:40.123Z,72.90
2022-07-31T12:27:31.287Z,71.90
2022-07-31T12:30:31.478Z,72.50
2022-07-31T12:33:22.468Z,72.00
2022-07-31T12:36:18.242Z,71.40
2022-07-31T12:39:10.677Z,70.80
2022-07-31T12:44:49.879Z,70.60
2022-07-31T12:47:51.911Z,70.60
2022-07-31T12:50:39.304Z,69.90
2022-07-31T12:53:31.276Z,69.80
2022-07-31T12:56:22.268Z,69.40
2022-07-31T12:59:13.833Z,68.60
2022-07-31T13:04:43.925Z,68.80
2022-07-31T13:07:34.912Z,68.30
2022-07-31T13:10:32.105Z,68.50
2022-07-31T13:13:20.761Z,68.20
2022-07-31T13:16:12.024Z,67.90
2022-07-31T13:19:02.997Z,67.50
2022-07-31T13:22:01.493Z,67.20
2022-07-31T13:24:52.527Z,67.40
2022-07-31T13:27:43.762Z,66.80
2022-07-31T13:30:34.787Z,66.70
2022-07-31T13:33:25.837Z,65.80
2022-07-31T13:36:16.703Z,66.10
2022-07-31T13:39:07.882Z,66.10
2022-07-31T13:44:37.285Z,66.20
2022-07-31T13:47:28.244Z,65.60
2022-07-31T13:50:24.788Z,65.50
2022-07-31T13:53:16.113Z,65.70
2022-07-31T13:56:11.027Z,65.20
2022-07-31T14:04:24.461Z,64.20
2022-07-31T14:07:15.567Z,63.40
2022-07-31T14:10:08.744Z,63.40
2022-07-31T14:13:00.336Z,62.90
2022-07-31T14:15:51.527Z,63.00
2022-07-31T14:21:28.837Z,61.10
2022-07-31T14:24:21.563Z,61.30
2022-07-31T14:27:12.724Z,61.60
2022-07-31T14:30:03.864Z,61.10
2022-07-31T14:32:55.153Z,60.60
2022-07-31T14:35:46.179Z,60.40
2022-07-31T14:38:39.109Z,59.70
2022-07-31T14:41:30.246Z,59.50
2022-07-31T14:44:21.514Z,58.90
2022-07-31T14:50:08.650Z,59.20
2022-07-31T14:52:47.115Z,58.30
2022-07-31T14:55:38.327Z,58.50
2022-07-31T15:01:10.711Z,58.00
2022-07-31T15:04:02.178Z,57.10
2022-07-31T15:09:36.831Z,56.30
2022-07-31T15:12:31.835Z,56.30
2022-07-31T15:15:23.464Z,56.30
2022-07-31T15:18:15.504Z,56.10
2022-07-31T15:21:06.691Z,55.90
2022-07-31T15:26:35.766Z,56.10
2022-07-31T15:30:03.315Z,55.30
2022-07-31T15:35:01.998Z,54.40
2022-07-31T15:40:34.146Z,53.70
2022-07-31T15:43:25.358Z,53.40
2022-07-31T15:46:17.321Z,53.00
2022-07-31T15:54:31.849Z,53.20
2022-07-31T16:00:10.975Z,52.90
2022-07-31T16:03:04.575Z,53.00
2022-07-31T16:05:56.396Z,53.40
2022-07-31T16:08:48.123Z,53.20
2022-07-31T16:12:05.079Z,52.70
2022-07-31T16:14:36.985Z,52.80
2022-07-31T16:17:30.508Z,52.10
2022-07-31T16:20:26.009Z,52.40
2022-07-31T16:23:17.778Z,52.00
2022-07-31T16:26:08.913Z,52.50
2022-07-31T16:31:40.116Z,51.90
2022-07-31T16:39:50.098Z,51.90
2022-07-31T16:42:40.908Z,52.20
2022-07-31T16:45:32.377Z,52.00
2022-07-31T16:48:23.921Z,51.70
2022-07-31T16:51:14.796Z,51.50
2022-07-31T16:54:13.251Z,51.50
2022-07-31T16:59:57.561Z,51.70
2022-07-31T17:02:38.157Z,52.00
2022-07-31T17:05:36.102Z,52.30
2022-07-31T17:08:28.916Z,52.30
2022-07-31T17:11:20.041Z,52.50
2022-07-31T17:14:11.565Z,52.90
2022-07-31T17:19:45.755Z,52.60
2022-07-31T17:22:35.117Z,53.10
2022-07-31T17:25:27.608Z,53.90
2022-07-31T17:28:18.923Z,54.30
2022-07-31T17:31:10.293Z,54.50
2022-07-31T17:34:04.839Z,55.00
2022-07-31T17:39:33.523Z,55.50
2022-07-31T17:42:24.905Z,55.80
2022-07-31T17:45:16.416Z,56.00
2022-07-31T17:48:08.753Z,56.10
2022-07-31T17:50:59.952Z,56.20
2022-07-31T17:53:55.163Z,56.50
2022-07-31T17:56:43.668Z,56.80
2022-07-31T17:59:34.791Z,56.80
2022-07-31T18:02:25.865Z,57.20
2022-07-31T18:05:16.985Z,57.30
2022-07-31T18:08:08.750Z,57.40
2022-07-31T18:10:59.947Z,57.80
2022-07-31T18:13:55.282Z,58.60
2022-07-31T18:16:44.951Z,58.90
2022-07-31T18:19:36.180Z,59.50
2022-07-31T18:22:49.187Z,59.60
2022-07-31T18:25:29.064Z,60.00
2022-07-31T18:28:20.120Z,59.90
2022-07-31T18:31:32.418Z,60.10
2022-07-31T18:34:04.093Z,61.00
2022-07-31T18:39:48.937Z,61.00
2022-07-31T18:42:29.663Z,60.90
2022-07-31T18:45:21.018Z,61.10
2022-07-31T18:48:11.900Z,61.20
2022-07-31T18:51:05.919Z,61.20
2022-07-31T18:56:38.173Z,61.50
2022-07-31T18:59:29.188Z,61.70
2022-07-31T19:02:20.714Z,61.70
2022-07-31T19:05:14.947Z,61.80
2022-07-31T19:08:13.300Z,61.90
2022-07-31T19:11:04.929Z,61.90
2022-07-31T19:16:36.663Z,62.10
2022-07-31T19:19:52.799Z,61.90
2022-07-31T19:25:21.966Z,61.70
2022-07-31T19:28:15.168Z,62.00
2022-07-31T19:31:06.305Z,62.30
2022-07-31T19:33:57.516Z,62.50
2022-07-31T19:36:48.950Z,62.70
2022-07-31T19:39:40.388Z,62.40
2022-07-31T19:42:31.414Z,62.70
2022-07-31T19:45:23.938Z,62.80
2022-07-31T19:48:14.771Z,62.80
2022-07-31T19:51:06.671Z,62.60
2022-07-31T19:53:57.765Z,62.50
2022-07-31T19:56:49.208Z,62.90
2022-07-31T19:59:47.273Z,63.20
2022-07-31T20:02:49.181Z,62.90
2022-07-31T20:05:40.363Z,63.00
2022-07-31T20:08:33.877Z,63.40
2022-07-31T20:11:24.939Z,63.70
2022-07-31T20:14:15.941Z,63.60
2022-07-31T20:17:07.181Z,64.00
2022-07-31T20:20:12.649Z,64.70
2022-07-31T20:22:51.530Z,64.70
2022-07-31T20:25:42.422Z,65.10
2022-07-31T20:28:33.372Z,65.10
2022-07-31T20:31:24.552Z,65.30
2022-07-31T20:34:16.568Z,65.50
2022-07-31T20:37:07.655Z,65.90
2022-07-31T20:40:06.996Z,66.00
2022-07-31T20:45:55.433Z,66.20
2022-07-31T20:48:59.313Z,66.00
2022-07-31T20:54:34.755Z,66.70
2022-07-31T21:00:04.049Z,66.80
2022-07-31T21:02:54.904Z,67.30
2022-07-31T21:08:47.393Z,67.50
2022-07-31T21:11:38.952Z,67.70
2022-07-31T21:14:30.164Z,67.80
2022-07-31T21:17:21.108Z,67.90
2022-07-31T21:20:14.793Z,67.80
2022-07-31T21:23:06.452Z,68.10
2022-07-31T21:26:06.694Z,68.40
2022-07-31T21:29:06.137Z,68.80
2022-07-31T21:31:59.082Z,69.10
2022-07-31T21:34:51.320Z,68.90
2022-07-31T21:37:43.212Z,69.40
2022-07-31T21:40:39.015Z,69.70
2022-07-31T21:49:58.464Z,70.30
2022-07-31T21:55:34.422Z,70.40
2022-07-31T21:58:25.248Z,70.50
2022-07-31T22:01:20.404Z,70.20
2022-07-31T22:04:12.665Z,70.10
2022-07-31T22:10:22.220Z,70.60
2022-07-31T22:13:13.495Z,71.00
2022-07-31T22:16:12.744Z,71.30
2022-07-31T22:19:10.934Z,71.50
2022-07-31T22:22:18.439Z,71.30
2022-07-31T22:25:37.619Z,72.00
2022-07-31T22:28:30.801Z,72.10
2022-07-31T22:31:22.750Z,72.10
2022-07-31T22:34:14.125Z,72.10
2022-07-31T22:37:07.703Z,72.40
2022-07-31T22:40:02.704Z,72.90
2022-07-31T22:42:56.052Z,72.40
2022-07-31T22:45:48.890Z,72.50
2022-07-31T22:48:41.319Z,72.60
2022-07-31T22:51:38.013Z,73.00
2022-07-31T22:54:25.132Z,73.50
2022-07-31T22:57:17.036Z,72.50
2022-07-31T23:00:13.956Z,72.90
2022-07-31T23:03:04.961Z,73.00
2022-07-31T23:06:13.030Z,73.10
2022-07-31T23:08:49.357Z,73.00
2022-07-31T23:11:42.041Z,73.20
2022-07-31T23:14:33.628Z,73.20
2022-07-31T23:20:03.701Z,73.50
2022-07-31T23:22:54.599Z,73.70
2022-07-31T23:25:45.770Z,73.20
2022-07-31T23:28:36.631Z,73.70
2022-07-31T23:31:28.041Z,73.70
2022-07-31T23:34:19.095Z,73.70
2022-07-31T23:37:11.607Z,73.70
2022-07-31T23:40:02.428Z,74.20
2022-07-31T23:43:02.927Z,74.30
2022-07-31T23:45:54.290Z,74.10
2022-07-31T23:48:54.131Z,75.00
2022-07-31T23:51:59.759Z,74.40
2022-07-31T23:54:57.776Z,74.80
2022-07-31T23:57:49.242Z,75.40
